Anna Maria, Florida
Current Conditions -  °F | °C
As of 1:53 PM on Thursday 30 Oct 2014 (Local Time) from KSRQ Reporting Station
Few Clouds Few Clouds  
Wind Chill: 82°   Ceiling: Unl
Heat Index: 83°   Visibility: 10mi
Dew Point: 64°   Wind: 9mph
Humidity: 54%   Direction: 240°WSW
Pressure: 29.91"   Gusts: NA
Location:  27.53°N, 82.73°W
Report Text: KSRQ 301753Z 24008KT 10SM FEW050 28/18 A2991 RMK AO2 SLP127 T02780178 10289 20194 58019
Loading
Personal Weather Stations






























Interactive Weather Map
Tropical Storm Tracking
New forecast layout! Learn more

10-Day Weather Forecast

Advertisements
Track Severe Weather on mobile